Green Lake, Texas
Current Conditions -  °F | °C
As of 9:55 PM on Saturday 24 Jan 2015 (Local Time) from KPKV Reporting Station
Clear Clear  
Wind Chill: 44°   Ceiling: Unl
Heat Index: 47°   Visibility: 10mi
Dew Point: 45°   Wind: 7mph
Humidity: 92%   Direction: 200°SSW
Pressure: 30.13"   Gusts: NA
Location:  28.5342°N, 96.663°W
Report Text: KPKV 250355Z AUTO 20006KT 10SM CLR 09/07 A3013 RMK AO2 T00860073
Loading
Personal Weather Stations






























Interactive Weather Map New forecast layout! Learn more

10-Day Weather Forecast

Advertisements
Track Severe Weather on mobile